Time;durP1;ratioP1;P1;durP2;ratioP2;P2;SDS_P1;SDS_P2;PMS_P1;PMS_P2;Temp;Humidity;BMP_temperature;BMP_pressure;BME280_temperature;BME280_humidity;BME280_pressure;Samples;Min_cycle;Max_cycle;Signal;HPM_P1;HPM_P2
2021/05/25 00:01:32;;;;;;;7.45;2.40;;;7.60;99.90;;;;;;6191760;23;20011;-91
2021/05/25 00:03:58;;;;;;;7.35;2.40;;;7.60;99.90;;;;;;6191123;23;20021;-92
2021/05/25 00:06:24;;;;;;;5.72;2.03;;;7.60;99.90;;;;;;6191042;23;19997;-91
2021/05/25 00:08:50;;;;;;;8.70;2.30;;;7.60;99.90;;;;;;6190289;23;20012;-91
2021/05/25 00:11:16;;;;;;;7.13;2.58;;;7.60;99.90;;;;;;6190778;23;20022;-91
2021/05/25 00:13:42;;;;;;;9.65;2.83;;;7.70;99.90;;;;;;6190883;23;20009;-91
2021/05/25 00:16:08;;;;;;;5.10;2.45;;;7.60;99.90;;;;;;6191055;23;20062;-90
2021/05/25 00:18:34;;;;;;;6.15;2.67;;;7.70;99.90;;;;;;6191094;23;20436;-92
2021/05/25 00:20:59;;;;;;;4.63;2.40;;;7.70;99.90;;;;;;6191284;23;20329;-90
2021/05/25 00:23:25;;;;;;;5.70;2.40;;;7.70;99.90;;;;;;6191464;23;20450;-90
2021/05/25 00:25:51;;;;;;;6.68;2.50;;;7.60;99.90;;;;;;6191455;23;20024;-90
2021/05/25 00:28:20;;;;;;;6.25;3.08;;;7.60;99.90;;;;;;6191565;23;20005;-90
2021/05/25 00:30:49;;;;;;;7.50;2.67;;;7.60;99.90;;;;;;6191352;23;20004;-91
2021/05/25 00:33:15;;;;;;;5.78;2.35;;;7.60;99.90;;;;;;6190734;23;19997;-90
2021/05/25 00:35:41;;;;;;;5.30;2.58;;;7.60;99.90;;;;;;6190697;23;20000;-90
2021/05/25 00:38:09;;;;;;;7.03;2.75;;;7.60;99.90;;;;;;6190787;23;20013;-91
2021/05/25 00:40:35;;;;;;;7.65;2.78;;;7.70;99.90;;;;;;6190710;23;20008;-91
2021/05/25 00:43:01;;;;;;;4.30;2.10;;;7.70;99.90;;;;;;6190963;23;20016;-91
2021/05/25 00:45:27;;;;;;;7.88;3.35;;;7.70;99.90;;;;;;6190547;23;20009;-90
2021/05/25 00:47:53;;;;;;;5.90;2.88;;;7.70;99.90;;;;;;6190294;23;20050;-90
2021/05/25 00:50:26;;;;;;;4.65;2.85;;;7.70;99.90;;;;;;6190603;23;20001;-92
2021/05/25 00:52:55;;;;;;;5.47;3.25;;;7.70;99.90;;;;;;6190580;23;20119;-90
2021/05/25 00:55:25;;;;;;;8.60;3.40;;;7.70;99.90;;;;;;6190305;23;20035;-91
2021/05/25 00:57:52;;;;;;;6.03;3.13;;;7.70;99.90;;;;;;6193343;23;20009;-91
2021/05/25 01:00:22;;;;;;;9.45;3.25;;;7.70;99.90;;;;;;6194135;23;20008;-90
2021/05/25 01:02:48;;;;;;;9.25;4.00;;;7.70;99.90;;;;;;6220991;23;20005;-91
2021/05/25 01:05:15;;;;;;;7.78;3.40;;;7.70;99.90;;;;;;6191551;23;20013;-91
2021/05/25 01:07:42;;;;;;;5.53;3.20;;;7.70;99.90;;;;;;6190994;23;20028;-91
2021/05/25 01:10:12;;;;;;;8.13;3.85;;;7.80;99.90;;;;;;6191158;23;20309;-90
2021/05/25 01:12:48;;;;;;;8.75;3.67;;;7.80;99.90;;;;;;6190876;23;20039;-91
2021/05/25 01:15:15;;;;;;;6.18;3.63;;;7.80;99.90;;;;;;6190342;23;20029;-90
2021/05/25 01:17:40;;;;;;;7.82;2.97;;;7.80;99.90;;;;;;6189692;23;20490;-92
2021/05/25 01:20:07;;;;;;;7.75;3.20;;;7.80;99.90;;;;;;6189925;23;20008;-92
2021/05/25 01:22:33;;;;;;;4.72;2.90;;;7.90;99.90;;;;;;6190188;23;20031;-91
2021/05/25 01:25:07;;;;;;;4.88;2.50;;;7.90;99.90;;;;;;6216545;23;20091;-91
2021/05/25 01:27:32;;;;;;;8.02;2.53;;;7.90;99.90;;;;;;6190148;23;20039;-91
2021/05/25 01:29:58;;;;;;;4.25;2.08;;;7.90;99.90;;;;;;6189975;23;20009;-91
2021/05/25 01:32:24;;;;;;;5.72;2.25;;;8.00;99.90;;;;;;6216749;23;20013;-91
2021/05/25 01:34:55;;;;;;;5.60;2.00;;;8.00;99.90;;;;;;6190324;23;20352;-90
2021/05/25 01:37:22;;;;;;;7.68;2.55;;;8.00;99.90;;;;;;6190443;23;19996;-91
2021/05/25 01:39:52;;;;;;;8.70;2.70;;;8.00;99.90;;;;;;6189606;23;20008;-91
2021/05/25 01:42:18;;;;;;;3.35;1.77;;;8.00;99.90;;;;;;6216220;23;20013;-90
2021/05/25 01:44:44;;;;;;;3.92;2.05;;;8.00;99.90;;;;;;6165161;23;20024;-91
2021/05/25 01:47:10;;;;;;;7.10;2.60;;;8.00;99.90;;;;;;6190170;23;20313;-92
2021/05/25 01:49:36;;;;;;;7.75;1.92;;;8.00;99.90;;;;;;6189940;23;20012;-91
2021/05/25 01:52:02;;;;;;;12.10;2.55;;;8.00;99.90;;;;;;6190324;23;20005;-92
2021/05/25 01:54:27;;;;;;;6.70;1.58;;;8.00;99.90;;;;;;6189939;23;20004;-91
2021/05/25 01:56:53;;;;;;;4.72;1.60;;;8.00;99.90;;;;;;6190101;23;20317;-91
2021/05/25 01:59:19;;;;;;;5.00;1.67;;;8.00;99.90;;;;;;6189742;23;20050;-91
2021/05/25 02:01:45;;;;;;;4.82;2.15;;;8.00;99.90;;;;;;6190313;23;20424;-91
2021/05/25 02:04:11;;;;;;;4.47;1.20;;;8.00;99.90;;;;;;6189600;23;20495;-91
2021/05/25 02:06:36;;;;;;;4.63;1.20;;;8.00;99.90;;;;;;6190239;23;20011;-91
2021/05/25 02:09:05;;;;;;;3.70;1.23;;;8.00;99.90;;;;;;6189986;23;20365;-91
2021/05/25 02:11:30;;;;;;;2.85;1.45;;;8.00;99.90;;;;;;6190276;23;20015;-91
2021/05/25 02:13:56;;;;;;;4.88;1.33;;;8.00;99.90;;;;;;6190052;23;20005;-91
2021/05/25 02:16:22;;;;;;;7.40;2.45;;;8.10;99.90;;;;;;6189855;23;20092;-91
2021/05/25 02:18:49;;;;;;;4.25;2.33;;;8.00;99.90;;;;;;6189843;23;20076;-90
2021/05/25 02:21:20;;;;;;;7.45;2.13;;;8.00;99.90;;;;;;6189891;23;20004;-92
2021/05/25 02:23:47;;;;;;;6.70;1.50;;;8.00;99.90;;;;;;6189945;23;20336;-91
2021/05/25 02:26:13;;;;;;;3.88;1.30;;;8.00;99.90;;;;;;6189940;23;20116;-91
2021/05/25 02:28:39;;;;;;;6.82;1.40;;;8.00;99.90;;;;;;6189905;23;20021;-91
2021/05/25 02:31:06;;;;;;;5.95;1.13;;;8.00;99.90;;;;;;6189721;23;20008;-91
2021/05/25 02:33:32;;;;;;;4.47;1.83;;;8.00;99.90;;;;;;6190221;23;20009;-91
2021/05/25 02:35:59;;;;;;;12.93;1.50;;;8.00;99.90;;;;;;6189598;23;20345;-91
2021/05/25 02:38:27;;;;;;;8.13;1.30;;;8.10;99.90;;;;;;6189872;23;20009;-91
2021/05/25 02:40:56;;;;;;;3.38;1.35;;;8.10;99.90;;;;;;6189459;23;20023;-91
2021/05/25 02:43:24;;;;;;;5.35;1.38;;;8.10;99.90;;;;;;6189563;23;20016;-91
2021/05/25 02:45:50;;;;;;;4.30;1.35;;;8.10;99.90;;;;;;6189602;23;20020;-91
2021/05/25 02:48:17;;;;;;;7.40;1.45;;;8.10;99.90;;;;;;6190769;23;20000;-90
2021/05/25 02:50:43;;;;;;;5.25;1.23;;;8.10;99.90;;;;;;6195436;23;20004;-90
2021/05/25 02:53:09;;;;;;;7.13;1.20;;;8.10;99.90;;;;;;6196666;23;20347;-91
2021/05/25 02:55:39;;;;;;;3.40;1.20;;;8.10;99.90;;;;;;6196602;23;20005;-90
2021/05/25 02:58:06;;;;;;;6.00;1.40;;;8.10;99.90;;;;;;6196811;23;20002;-90
2021/05/25 03:00:47;;;;;;;5.38;0.95;;;8.10;99.90;;;;;;6196745;23;19993;-90
2021/05/25 03:03:22;;;;;;;1.38;1.05;;;8.10;99.90;;;;;;6195302;23;20012;-90
2021/05/25 03:05:47;;;;;;;3.28;1.00;;;8.10;99.90;;;;;;6191152;23;20009;-91
2021/05/25 03:08:17;;;;;;;4.05;0.90;;;8.00;99.90;;;;;;6194021;23;20007;-90
2021/05/25 03:10:46;;;;;;;1.77;0.70;;;8.00;99.90;;;;;;6189698;23;20032;-90
2021/05/25 03:13:12;;;;;;;1.85;0.90;;;8.00;99.90;;;;;;6190312;23;20080;-90
2021/05/25 03:15:40;;;;;;;1.50;0.70;;;8.00;99.90;;;;;;6192512;23;20413;-92
2021/05/25 03:18:07;;;;;;;4.28;1.02;;;8.00;99.90;;;;;;6193541;23;20009;-90
2021/05/25 03:20:34;;;;;;;7.55;1.10;;;8.00;99.90;;;;;;6192299;23;20004;-91
2021/05/25 03:23:01;;;;;;;5.57;1.20;;;8.00;99.90;;;;;;6191976;23;20012;-90
2021/05/25 03:25:27;;;;;;;4.63;1.08;;;8.00;99.90;;;;;;6191074;23;20020;-90
2021/05/25 03:27:53;;;;;;;9.07;2.00;;;8.00;99.90;;;;;;6191026;23;20086;-90
2021/05/25 03:30:22;;;;;;;5.75;1.27;;;8.00;99.90;;;;;;6190010;23;20011;-90
2021/05/25 03:32:48;;;;;;;6.07;1.25;;;8.00;99.90;;;;;;6190266;23;20001;-91
2021/05/25 03:35:16;;;;;;;8.82;1.40;;;8.00;99.90;;;;;;6189625;23;20344;-91
2021/05/25 03:37:42;;;;;;;3.70;1.40;;;7.90;99.90;;;;;;6189589;23;20001;-92
2021/05/25 03:40:10;;;;;;;7.32;1.58;;;7.90;99.90;;;;;;6190393;23;20059;-92
2021/05/25 03:42:39;;;;;;;4.15;0.95;;;7.90;99.90;;;;;;6191353;23;20008;-91
2021/05/25 03:45:06;;;;;;;10.48;1.27;;;7.90;99.90;;;;;;6191238;23;20436;-91
2021/05/25 03:47:32;;;;;;;8.57;1.73;;;8.00;99.90;;;;;;6191203;23;20001;-90
2021/05/25 03:50:07;;;;;;;7.22;2.03;;;8.00;99.90;;;;;;6190942;23;20004;-92
2021/05/25 03:52:34;;;;;;;10.13;1.73;;;8.00;99.90;;;;;;6190825;23;20020;-92
2021/05/25 03:55:01;;;;;;;7.07;1.75;;;8.00;99.90;;;;;;6191149;23;20009;-90
2021/05/25 03:59:53;;;;;;;3.85;1.50;;;8.00;99.90;;;;;;6218190;23;20008;-91
2021/05/25 04:02:19;;;;;;;7.53;1.42;;;8.00;99.90;;;;;;6191196;23;20008;-91
2021/05/25 04:04:46;;;;;;;7.82;1.58;;;7.90;99.90;;;;;;6191805;23;20012;-90
2021/05/25 04:07:12;;;;;;;8.43;1.50;;;8.00;99.90;;;;;;6192992;23;20478;-90
2021/05/25 04:09:38;;;;;;;3.75;1.08;;;8.00;99.90;;;;;;6192846;23;20005;-90
2021/05/25 04:12:04;;;;;;;7.75;1.30;;;8.00;99.90;;;;;;6193254;23;20040;-91
2021/05/25 04:14:31;;;;;;;6.30;1.27;;;7.90;99.90;;;;;;6219559;23;20009;-91
2021/05/25 04:17:00;;;;;;;8.10;1.48;;;7.90;99.90;;;;;;6219326;23;20005;-90
2021/05/25 04:19:25;;;;;;;7.30;1.20;;;7.90;99.90;;;;;;6191455;23;20432;-91
2021/05/25 04:21:51;;;;;;;3.17;1.00;;;7.90;99.90;;;;;;6190875;23;20011;-91
2021/05/25 04:24:20;;;;;;;6.82;1.40;;;8.00;99.90;;;;;;6190551;23;20428;-91
2021/05/25 04:26:46;;;;;;;4.22;1.23;;;7.90;99.90;;;;;;6190906;23;20016;-92
2021/05/25 04:29:12;;;;;;;3.35;1.17;;;7.90;99.90;;;;;;6190593;23;20000;-91
2021/05/25 04:31:37;;;;;;;5.47;1.33;;;7.90;99.90;;;;;;6190757;23;20104;-91
2021/05/25 04:34:04;;;;;;;6.03;1.65;;;7.90;99.90;;;;;;6190147;23;20413;-91
2021/05/25 04:36:30;;;;;;;6.80;1.30;;;8.00;99.90;;;;;;6190111;23;19997;-91
2021/05/25 04:38:56;;;;;;;4.93;1.38;;;7.90;99.90;;;;;;6190342;23;20012;-91
2021/05/25 04:41:21;;;;;;;4.68;1.20;;;8.00;99.90;;;;;;6184198;23;20556;-91
2021/05/25 04:43:47;;;;;;;8.30;1.48;;;7.90;99.90;;;;;;6183470;23;20099;-90
2021/05/25 04:46:13;;;;;;;7.13;1.75;;;7.90;99.90;;;;;;6183652;23;20452;-90
2021/05/25 04:48:38;;;;;;;7.47;1.42;;;8.00;99.90;;;;;;6183379;23;20051;-91
2021/05/25 04:51:04;;;;;;;4.18;1.00;;;8.00;99.90;;;;;;6183405;23;20009;-91
2021/05/25 04:53:33;;;;;;;4.05;1.00;;;7.90;99.90;;;;;;6183409;23;20083;-91
2021/05/25 04:56:01;;;;;;;7.75;1.50;;;8.00;99.90;;;;;;6184161;23;20062;-91
2021/05/25 04:58:27;;;;;;;7.63;1.38;;;8.00;99.90;;;;;;6184662;23;20021;-91
2021/05/25 05:00:53;;;;;;;11.57;3.55;;;8.00;99.90;;;;;;6184971;23;20005;-91
2021/05/25 05:03:22;;;;;;;6.75;1.70;;;8.00;99.90;;;;;;6184871;23;20005;-90
2021/05/25 05:05:48;;;;;;;9.20;1.45;;;8.00;99.90;;;;;;6184842;23;20503;-92
2021/05/25 05:08:14;;;;;;;6.13;1.48;;;8.10;99.90;;;;;;6184955;23;20005;-92
2021/05/25 05:10:39;;;;;;;11.75;1.75;;;8.00;99.90;;;;;;6184583;23;20013;-90
2021/05/25 05:13:09;;;;;;;6.57;1.85;;;8.00;99.90;;;;;;6184303;23;20008;-90
2021/05/25 05:15:36;;;;;;;12.55;1.73;;;8.00;99.90;;;;;;6183550;23;20005;-91
2021/05/25 05:18:02;;;;;;;15.93;1.73;;;8.10;99.90;;;;;;6184755;23;20040;-91
2021/05/25 05:20:28;;;;;;;16.02;3.30;;;8.10;99.90;;;;;;6184192;23;20092;-91
2021/05/25 05:22:54;;;;;;;9.65;1.65;;;8.10;99.90;;;;;;6184675;23;20012;-90
2021/05/25 05:25:20;;;;;;;6.88;1.70;;;8.20;99.90;;;;;;6184254;23;20024;-91
2021/05/25 05:27:45;;;;;;;10.25;1.67;;;8.10;99.90;;;;;;6184181;23;20001;-90
2021/05/25 05:30:12;;;;;;;10.50;1.85;;;8.20;99.90;;;;;;6184054;23;20455;-91
2021/05/25 05:32:38;;;;;;;10.27;1.63;;;8.20;99.90;;;;;;6183843;23;20009;-90
2021/05/25 05:35:06;;;;;;;8.90;1.13;;;8.20;99.90;;;;;;6183958;23;20009;-91
2021/05/25 05:37:34;;;;;;;5.68;1.75;;;8.20;99.90;;;;;;6184332;23;20008;-90
2021/05/25 05:40:00;;;;;;;9.57;2.20;;;8.20;99.90;;;;;;6184161;23;20009;-90
2021/05/25 05:42:26;;;;;;;7.45;1.77;;;8.20;99.90;;;;;;6134505;23;1180068;-90
2021/05/25 05:44:51;;;;;;;10.13;1.95;;;8.20;99.90;;;;;;6185220;23;20021;-90
2021/05/25 05:47:17;;;;;;;9.10;2.58;;;8.20;99.90;;;;;;6185085;23;20084;-89
2021/05/25 05:49:43;;;;;;;7.90;1.40;;;8.20;99.90;;;;;;6185061;23;20031;-89
2021/05/25 05:52:09;;;;;;;6.05;1.40;;;8.20;99.90;;;;;;6185497;23;20127;-90
2021/05/25 05:54:34;;;;;;;6.82;1.77;;;8.20;99.90;;;;;;6184958;23;20008;-89
2021/05/25 05:57:03;;;;;;;11.50;1.98;;;8.30;99.90;;;;;;6185631;23;20020;-88
2021/05/25 05:59:29;;;;;;;7.95;1.30;;;8.20;99.90;;;;;;6185157;23;20464;-89
2021/05/25 06:01:55;;;;;;;3.28;0.93;;;8.30;99.90;;;;;;6184956;23;20016;-89
2021/05/25 06:04:20;;;;;;;5.55;1.40;;;8.30;99.90;;;;;;6186023;23;20073;-90
2021/05/25 06:06:46;;;;;;;10.32;1.48;;;8.30;99.90;;;;;;6185183;23;20012;-90
2021/05/25 06:09:13;;;;;;;8.40;2.28;;;8.30;99.90;;;;;;6185239;23;20337;-88
2021/05/25 06:11:38;;;;;;;2.17;1.48;;;8.30;99.90;;;;;;6186229;23;20005;-90
2021/05/25 06:14:07;;;;;;;5.75;1.02;;;8.30;99.90;;;;;;6186435;23;20032;-90
2021/05/25 06:16:34;;;;;;;10.60;1.30;;;8.30;99.90;;;;;;6185694;23;20029;-90
2021/05/25 06:18:59;;;;;;;10.00;2.00;;;8.30;99.90;;;;;;6185323;23;20005;-89
2021/05/25 06:21:25;;;;;;;5.93;1.52;;;8.30;99.90;;;;;;6185671;23;20009;-89
2021/05/25 06:23:51;;;;;;;9.38;1.60;;;8.30;99.90;;;;;;6185445;23;20012;-88
2021/05/25 06:26:19;;;;;;;7.47;1.73;;;8.30;99.90;;;;;;6185641;23;20009;-90
2021/05/25 06:28:45;;;;;;;10.40;1.60;;;8.30;99.90;;;;;;6185125;23;20059;-90
2021/05/25 06:31:11;;;;;;;13.00;2.40;;;8.30;99.90;;;;;;6185263;23;20009;-89
2021/05/25 06:33:40;;;;;;;11.60;1.77;;;8.30;99.90;;;;;;6184622;23;20317;-89
2021/05/25 06:36:06;;;;;;;5.65;1.40;;;8.30;99.90;;;;;;6184606;23;20005;-89
2021/05/25 06:38:31;;;;;;;7.00;1.40;;;8.40;99.90;;;;;;6184362;23;20005;-89
2021/05/25 06:40:57;;;;;;;9.52;1.65;;;8.40;99.90;;;;;;6184231;23;20021;-90
2021/05/25 06:43:23;;;;;;;8.30;1.67;;;8.40;99.90;;;;;;6158520;23;20425;-90
2021/05/25 06:45:48;;;;;;;10.65;1.88;;;8.40;99.90;;;;;;6183253;23;20056;-90
2021/05/25 06:48:14;;;;;;;6.95;1.58;;;8.40;99.90;;;;;;6183496;23;20001;-89
2021/05/25 06:50:40;;;;;;;5.97;1.40;;;8.50;99.90;;;;;;6183014;23;20027;-89
2021/05/25 06:53:10;;;;;;;6.88;1.15;;;8.50;99.90;;;;;;6184158;23;20051;-90
2021/05/25 06:55:36;;;;;;;10.27;2.00;;;8.50;99.90;;;;;;6175138;23;20021;-90
2021/05/25 06:58:04;;;;;;;6.53;1.58;;;8.60;99.90;;;;;;6176895;23;20340;-91
2021/05/25 07:00:30;;;;;;;12.25;1.83;;;8.60;99.90;;;;;;6183266;23;20040;-90
2021/05/25 07:02:55;;;;;;;10.32;1.90;;;8.60;99.90;;;;;;6181674;23;20051;-93
2021/05/25 07:05:21;;;;;;;12.95;2.50;;;8.70;99.90;;;;;;6182615;23;20322;-91
2021/05/25 07:07:47;;;;;;;16.17;2.35;;;8.70;99.90;;;;;;6182161;23;20686;-91
2021/05/25 07:10:13;;;;;;;5.88;1.60;;;8.70;99.90;;;;;;6183556;23;20035;-91
2021/05/25 07:12:38;;;;;;;10.93;2.08;;;8.80;99.90;;;;;;6184235;23;20081;-92
2021/05/25 07:15:07;;;;;;;7.80;3.17;;;8.90;99.90;;;;;;6186817;23;20033;-91
2021/05/25 07:17:33;;;;;;;12.07;2.33;;;9.00;99.90;;;;;;6184687;23;20444;-93
2021/05/25 07:19:59;;;;;;;9.98;1.92;;;9.00;99.90;;;;;;6186498;23;20016;-92
2021/05/25 07:22:24;;;;;;;12.63;2.78;;;9.00;99.90;;;;;;6186903;23;20332;-93
2021/05/25 07:24:50;;;;;;;10.15;1.80;;;9.00;99.90;;;;;;6184457;23;20030;-93
2021/05/25 07:27:20;;;;;;;8.50;2.28;;;9.00;99.90;;;;;;6185790;23;20060;-92
2021/05/25 07:29:48;;;;;;;16.70;2.33;;;9.00;99.90;;;;;;6186157;23;20020;-92
2021/05/25 07:32:14;;;;;;;9.10;1.77;;;9.00;99.90;;;;;;6186300;23;20523;-92
2021/05/25 07:34:42;;;;;;;11.88;2.35;;;9.00;99.90;;;;;;6186411;23;20064;-91
2021/05/25 07:37:08;;;;;;;7.40;1.50;;;9.00;99.90;;;;;;6184906;23;20036;-91
2021/05/25 07:39:34;;;;;;;10.30;1.75;;;9.00;99.90;;;;;;6185806;23;20013;-89
2021/05/25 07:42:01;;;;;;;6.63;1.80;;;8.90;99.90;;;;;;6185342;23;20017;-92
2021/05/25 07:44:27;;;;;;;10.35;2.92;;;8.90;99.90;;;;;;6186166;23;20009;-92
2021/05/25 07:46:56;;;;;;;12.93;1.85;;;8.90;99.90;;;;;;6186683;23;20016;-92
2021/05/25 07:49:22;;;;;;;6.43;1.80;;;8.90;99.90;;;;;;6178715;23;20056;-93
2021/05/25 07:51:47;;;;;;;4.88;1.60;;;8.90;99.90;;;;;;6187160;23;20009;-93
2021/05/25 07:54:13;;;;;;;8.10;1.42;;;8.90;99.90;;;;;;6186251;23;20059;-93
2021/05/25 07:56:39;;;;;;;13.10;3.05;;;8.90;99.90;;;;;;6181895;23;20009;-94
2021/05/25 07:59:04;;;;;;;8.70;1.80;;;8.90;99.90;;;;;;6186932;23;20012;-93
2021/05/25 08:01:30;;;;;;;6.40;1.67;;;8.90;99.90;;;;;;6187852;23;20197;-93
2021/05/25 08:03:58;;;;;;;8.50;1.42;;;8.90;99.90;;;;;;6186662;23;20436;-93
2021/05/25 08:06:24;;;;;;;6.70;1.50;;;9.00;99.90;;;;;;6186239;23;20009;-92
2021/05/25 08:08:50;;;;;;;5.95;1.63;;;9.00;99.90;;;;;;6186455;23;20009;-95
2021/05/25 08:11:21;;;;;;;14.65;2.55;;;9.00;99.90;;;;;;6186945;23;20005;-93
2021/05/25 08:13:47;;;;;;;10.63;1.95;;;9.00;99.90;;;;;;6186845;23;20433;-95
2021/05/25 08:16:15;;;;;;;11.98;2.17;;;9.00;99.90;;;;;;6187293;23;20005;-91
2021/05/25 08:18:53;;;;;;;9.88;1.70;;;9.10;99.90;;;;;;6187058;23;20032;-93
2021/05/25 08:21:18;;;;;;;10.80;2.00;;;9.00;99.90;;;;;;6187096;23;20008;-92
2021/05/25 08:23:44;;;;;;;6.53;1.90;;;9.10;99.90;;;;;;6187765;23;20015;-93
2021/05/25 08:26:11;;;;;;;12.85;2.20;;;9.10;99.90;;;;;;6186947;23;20044;-94
2021/05/25 08:28:37;;;;;;;9.85;1.90;;;9.10;99.90;;;;;;6186896;23;20012;-96
2021/05/25 08:31:06;;;;;;;8.88;1.73;;;9.10;99.90;;;;;;6187109;23;20009;-92
2021/05/25 08:33:32;;;;;;;6.15;1.70;;;9.20;99.90;;;;;;6187375;23;20001;-94
2021/05/25 08:36:01;;;;;;;7.13;1.30;;;9.20;99.90;;;;;;6186651;23;20089;-94
2021/05/25 08:38:27;;;;;;;8.98;2.92;;;9.20;99.90;;;;;;6186649;23;20041;-94
2021/05/25 08:40:57;;;;;;;13.45;2.95;;;9.20;99.90;;;;;;6186788;23;20009;-94
2021/05/25 08:43:24;;;;;;;8.10;1.52;;;9.20;99.90;;;;;;6186377;23;20013;-93
2021/05/25 08:45:50;;;;;;;10.60;1.95;;;9.20;99.90;;;;;;6186390;23;20020;-93
2021/05/25 08:48:16;;;;;;;9.88;2.08;;;9.10;99.90;;;;;;6185975;23;20005;-94
2021/05/25 08:50:42;;;;;;;8.40;1.73;;;9.10;99.90;;;;;;6186748;23;20011;-94
2021/05/25 08:53:09;;;;;;;6.05;1.60;;;9.10;99.90;;;;;;6186615;23;20337;-96
2021/05/25 08:55:35;;;;;;;10.75;1.70;;;9.10;99.90;;;;;;6187010;23;20005;-95
2021/05/25 08:58:05;;;;;;;16.27;2.25;;;9.10;99.90;;;;;;6187603;23;20001;-93
2021/05/25 09:00:33;;;;;;;8.23;1.50;;;9.10;99.90;;;;;;6187182;23;20008;-93
2021/05/25 09:03:02;;;;;;;10.43;2.17;;;9.10;99.90;;;;;;6187661;23;20440;-93
2021/05/25 09:05:28;;;;;;;6.20;1.65;;;9.10;99.90;;;;;;6193866;23;20056;-93
2021/05/25 09:07:55;;;;;;;12.50;2.17;;;9.10;99.90;;;;;;6194508;23;20282;-92
2021/05/25 09:10:34;;;;;;;9.88;1.75;;;9.20;99.90;;;;;;6191568;23;20001;-93
2021/05/25 09:13:01;;;;;;;17.17;2.25;;;9.20;99.90;;;;;;6191215;23;20009;-95
2021/05/25 09:15:34;;;;;;;9.57;2.03;;;9.30;99.90;;;;;;6186975;23;20009;-93
2021/05/25 09:18:06;;;;;;;6.88;1.95;;;9.30;99.90;;;;;;6187083;23;20211;-95
2021/05/25 09:20:38;;;;;;;7.13;1.88;;;9.40;99.90;;;;;;6186831;23;20088;-95
2021/05/25 09:23:03;;;;;;;12.07;1.88;;;9.40;99.90;;;;;;6186614;23;20439;-94
2021/05/25 09:25:30;;;;;;;10.90;2.00;;;9.40;99.90;;;;;;6186798;23;20012;-95
2021/05/25 09:28:15;;;;;;;9.88;1.80;;;9.40;99.90;;;;;;6186481;23;20341;-95
2021/05/25 09:30:42;;;;;;;9.55;2.05;;;9.40;99.90;;;;;;6186998;23;20051;-95
2021/05/25 09:33:09;;;;;;;14.48;2.53;;;9.40;99.90;;;;;;6187392;23;20005;-94
2021/05/25 09:35:41;;;;;;;17.70;2.05;;;9.40;99.90;;;;;;6187139;23;20032;-94
2021/05/25 09:38:12;;;;;;;9.43;2.10;;;9.50;99.90;;;;;;6185727;23;20012;-93
2021/05/25 09:40:42;;;;;;;12.52;2.28;;;9.50;99.90;;;;;;6186473;23;20013;-94
2021/05/25 09:43:29;;;;;;;13.95;2.40;;;9.50;99.90;;;;;;6186969;23;20024;-95
2021/05/25 09:45:55;;;;;;;15.75;2.35;;;9.50;99.90;;;;;;6186707;23;20020;-95
2021/05/25 09:48:22;;;;;;;10.50;2.10;;;9.60;99.90;;;;;;6186445;23;20001;-95
2021/05/25 09:50:49;;;;;;;10.52;2.38;;;9.60;99.90;;;;;;6186437;23;20063;-95
2021/05/25 09:53:23;;;;;;;11.13;2.25;;;9.60;99.90;;;;;;6186108;23;20017;-94
2021/05/25 09:55:57;;;;;;;12.57;2.40;;;9.50;99.90;;;;;;6186125;23;20012;-94
2021/05/25 09:58:38;;;;;;;9.68;2.05;;;9.40;99.90;;;;;;6186154;23;20009;-94
2021/05/25 10:01:09;;;;;;;10.88;2.30;;;9.40;99.90;;;;;;6186917;23;19997;-95
2021/05/25 10:03:52;;;;;;;15.50;2.60;;;9.40;99.90;;;;;;6187049;23;20015;-94
2021/05/25 10:06:18;;;;;;;13.38;3.33;;;9.40;99.90;;;;;;6187820;23;20017;-95
2021/05/25 10:08:45;;;;;;;9.45;2.00;;;9.30;99.90;;;;;;6189169;23;20028;-95
2021/05/25 10:11:15;;;;;;;7.55;2.03;;;9.30;99.90;;;;;;6193570;23;20013;-94
2021/05/25 10:13:41;;;;;;;14.38;2.50;;;9.30;99.90;;;;;;6191483;23;20068;-95
2021/05/25 10:16:12;;;;;;;10.07;2.95;;;9.30;99.90;;;;;;6188267;23;20016;-94
2021/05/25 10:21:12;;;;;;;6.00;1.90;;;9.30;99.90;;;;;;6203550;23;20005;-95
2021/05/25 10:24:06;;;;;;;13.55;2.22;;;9.20;99.90;;;;;;6192316;23;20009;-95
2021/05/25 10:26:34;;;;;;;5.97;1.42;;;9.20;99.90;;;;;;6188160;23;20062;-93
2021/05/25 10:29:04;;;;;;;11.02;2.10;;;9.10;99.90;;;;;;6187753;23;20005;-93
2021/05/25 10:31:35;;;;;;;9.20;2.13;;;9.10;99.90;;;;;;6187971;23;20009;-91
2021/05/25 10:34:14;;;;;;;9.10;1.80;;;9.00;99.90;;;;;;6190871;23;20336;-93
2021/05/25 10:36:53;;;;;;;11.93;2.35;;;9.00;99.90;;;;;;6193442;23;20196;-91
2021/05/25 10:39:32;;;;;;;13.18;1.90;;;9.00;99.90;;;;;;6191503;23;20028;-91
2021/05/25 10:42:34;;;;;;;18.85;2.40;;;9.00;99.90;;;;;;6190714;23;20040;-92
2021/05/25 10:45:21;;;;;;;9.75;2.35;;;9.00;99.90;;;;;;6187466;23;20024;-93
2021/05/25 10:48:01;;;;;;;13.90;3.00;;;9.00;99.90;;;;;;6188034;23;20008;-94
2021/05/25 10:50:34;;;;;;;14.75;2.90;;;9.00;99.90;;;;;;6188988;23;20028;-93
2021/05/25 10:52:59;;;;;;;10.55;2.45;;;9.00;99.90;;;;;;6188495;23;20032;-93
2021/05/25 10:55:31;;;;;;;11.57;3.03;;;9.00;99.90;;;;;;6188772;23;20005;-92
2021/05/25 10:58:19;;;;;;;16.60;3.20;;;9.00;99.90;;;;;;6187738;23;20017;-94
2021/05/25 11:00:51;;;;;;;12.27;2.90;;;9.00;99.90;;;;;;6187497;23;20012;-95
2021/05/25 11:03:16;;;;;;;9.32;2.47;;;9.00;99.90;;;;;;6188204;23;20008;-96
2021/05/25 11:05:44;;;;;;;20.42;2.63;;;9.00;99.90;;;;;;6187997;23;20454;-94
2021/05/25 11:08:11;;;;;;;5.68;1.42;;;8.90;99.90;;;;;;6188349;23;20017;-92
2021/05/25 11:10:39;;;;;;;18.38;2.92;;;8.90;99.90;;;;;;6188017;23;20441;-94
2021/05/25 11:13:25;;;;;;;12.00;2.92;;;8.90;99.90;;;;;;6187721;23;20108;-94
2021/05/25 11:16:13;;;;;;;13.80;2.58;;;8.90;99.90;;;;;;6188283;23;20005;-92
2021/05/25 11:19:08;;;;;;;10.50;2.88;;;8.90;99.90;;;;;;6188093;23;20456;-93
2021/05/25 11:24:34;;;;;;;15.77;4.30;;;8.90;99.90;;;;;;6189754;23;20013;-94
2021/05/25 11:27:14;;;;;;;11.38;2.33;;;8.90;99.90;;;;;;6188878;23;20036;-93
2021/05/25 11:29:59;;;;;;;17.60;3.88;;;8.90;99.90;;;;;;6187681;23;20449;-94
2021/05/25 11:32:52;;;;;;;5.22;1.45;;;8.90;99.90;;;;;;6190425;23;20075;-92
2021/05/25 11:35:26;;;;;;;10.15;2.45;;;8.90;99.90;;;;;;6182514;23;20005;-93
2021/05/25 11:37:59;;;;;;;14.98;2.97;;;8.90;99.90;;;;;;6188122;23;20001;-93
2021/05/25 11:40:30;;;;;;;14.23;2.97;;;8.90;99.90;;;;;;6191479;23;20013;-93
2021/05/25 11:43:01;;;;;;;17.95;3.75;;;8.90;99.90;;;;;;6192942;23;20016;-92
2021/05/25 11:45:29;;;;;;;12.00;2.75;;;8.90;99.90;;;;;;6193048;23;20009;-92
2021/05/25 11:48:03;;;;;;;10.10;3.03;;;8.90;99.90;;;;;;6191479;23;20343;-92
2021/05/25 11:50:41;;;;;;;22.02;3.55;;;9.00;99.90;;;;;;6191155;23;20039;-94
2021/05/25 11:53:09;;;;;;;19.80;3.58;;;9.00;99.90;;;;;;6193138;23;20075;-94
2021/05/25 11:55:35;;;;;;;19.63;3.35;;;9.10;99.90;;;;;;6190395;23;20448;-93
2021/05/25 11:58:01;;;;;;;12.75;2.25;;;9.20;99.90;;;;;;6191414;23;20008;-93
2021/05/25 12:00:28;;;;;;;9.40;2.70;;;9.30;99.90;;;;;;6191110;23;20023;-92
2021/05/25 12:03:02;;;;;;;22.70;3.28;;;9.40;99.90;;;;;;6192345;23;20015;-93
2021/05/25 12:05:30;;;;;;;15.07;2.75;;;9.40;99.90;;;;;;6192482;23;20373;-93
2021/05/25 12:08:06;;;;;;;16.00;2.67;;;9.50;99.90;;;;;;6192126;23;20008;-93
2021/05/25 12:10:44;;;;;;;17.65;2.60;;;9.50;99.90;;;;;;6194013;23;20011;-93
2021/05/25 12:13:15;;;;;;;17.25;3.00;;;9.60;99.90;;;;;;6197114;23;20009;-95
2021/05/25 12:15:47;;;;;;;19.08;4.93;;;9.60;99.90;;;;;;6197805;23;20083;-95
2021/05/25 12:18:24;;;;;;;9.38;3.22;;;9.60;99.90;;;;;;6199608;23;20007;-94
2021/05/25 12:20:51;;;;;;;13.32;2.70;;;9.70;99.90;;;;;;6198224;23;20005;-92
2021/05/25 12:23:19;;;;;;;13.45;2.63;;;9.70;99.90;;;;;;6194225;23;20055;-92
2021/05/25 12:25:53;;;;;;;17.02;3.80;;;9.80;99.90;;;;;;6192559;23;20066;-93
2021/05/25 12:28:20;;;;;;;12.35;2.63;;;9.90;99.90;;;;;;6192493;23;20004;-93
2021/05/25 12:30:51;;;;;;;14.10;2.30;;;10.00;99.90;;;;;;6192099;23;20444;-93
2021/05/25 12:33:32;;;;;;;12.00;3.00;;;10.10;99.90;;;;;;6192045;23;20000;-94
2021/05/25 12:36:16;;;;;;;18.75;3.47;;;10.20;99.90;;;;;;6192022;23;20004;-93
2021/05/25 12:39:08;;;;;;;16.30;2.28;;;10.20;99.90;;;;;;6191859;23;20023;-93
2021/05/25 12:41:49;;;;;;;6.10;1.65;;;10.20;99.90;;;;;;6191493;23;20021;-94
2021/05/25 12:44:42;;;;;;;10.48;2.35;;;10.20;99.90;;;;;;6191742;23;20013;-94
2021/05/25 12:47:10;;;;;;;12.55;2.25;;;10.20;99.90;;;;;;6188543;23;20004;-92
2021/05/25 12:49:46;;;;;;;16.27;2.88;;;10.20;99.90;;;;;;6190078;23;20435;-93
2021/05/25 12:52:34;;;;;;;15.95;2.50;;;10.20;99.90;;;;;;6192268;23;20001;-93
2021/05/25 12:55:12;;;;;;;10.70;2.22;;;10.30;99.90;;;;;;6191600;23;20340;-94
2021/05/25 12:57:50;;;;;;;12.48;1.95;;;10.30;99.90;;;;;;6191938;23;20013;-93
2021/05/25 13:00:39;;;;;;;14.32;2.05;;;10.30;99.90;;;;;;6191504;23;20001;-94
2021/05/25 13:03:21;;;;;;;15.82;2.13;;;10.30;99.90;;;;;;6191832;23;20016;-93
2021/05/25 13:05:47;;;;;;;11.98;1.85;;;10.20;99.90;;;;;;6191577;23;20448;-93
2021/05/25 13:08:25;;;;;;;4.03;1.42;;;10.30;99.90;;;;;;6191684;23;20007;-94
2021/05/25 13:10:53;;;;;;;11.20;1.80;;;10.30;99.90;;;;;;6191449;23;20031;-93